sensor_id;sensor_type;location;lat;lon;timestamp;pressure;altitude;pressure_sealevel;temperature;humidity
72110;BME280;59983;52.010;5.420;2023-03-23T00:00:54;100267.78;;;11.01;100.00
72110;BME280;59983;52.010;5.420;2023-03-23T00:03:21;100262.78;;;11.03;100.00
72110;BME280;59983;52.010;5.420;2023-03-23T00:05:47;100262.44;;;11.04;100.00
72110;BME280;59983;52.010;5.420;2023-03-23T00:08:19;100258.13;;;11.03;100.00
72110;BME280;59983;52.010;5.420;2023-03-23T00:10:49;100237.22;;;11.04;100.00
72110;BME280;59983;52.010;5.420;2023-03-23T00:13:18;100234.16;;;11.05;100.00
72110;BME280;59983;52.010;5.420;2023-03-23T00:15:46;100246.22;;;11.08;100.00
72110;BME280;59983;52.010;5.420;2023-03-23T00:18:14;100227.22;;;11.08;100.00
72110;BME280;59983;52.010;5.420;2023-03-23T00:20:51;100203.94;;;11.07;100.00
72110;BME280;59983;52.010;5.420;2023-03-23T00:23:18;100190.41;;;11.11;100.00
72110;BME280;59983;52.010;5.420;2023-03-23T00:25:49;100197.00;;;11.10;100.00
72110;BME280;59983;52.010;5.420;2023-03-23T00:28:16;100212.91;;;11.11;100.00
72110;BME280;59983;52.010;5.420;2023-03-23T00:30:42;100219.47;;;11.10;100.00
72110;BME280;59983;52.010;5.420;2023-03-23T00:33:10;100209.78;;;11.09;100.00
72110;BME280;59983;52.010;5.420;2023-03-23T00:35:38;100210.16;;;11.07;100.00
72110;BME280;59983;52.010;5.420;2023-03-23T00:38:04;100217.91;;;11.09;100.00
72110;BME280;59983;52.010;5.420;2023-03-23T00:40:29;100214.06;;;11.10;100.00
72110;BME280;59983;52.010;5.420;2023-03-23T00:42:55;100213.66;;;11.08;100.00
72110;BME280;59983;52.010;5.420;2023-03-23T00:45:21;100208.25;;;11.12;100.00
72110;BME280;59983;52.010;5.420;2023-03-23T00:47:46;100202.41;;;11.10;100.00
72110;BME280;59983;52.010;5.420;2023-03-23T00:50:16;100192.72;;;11.09;100.00
72110;BME280;59983;52.010;5.420;2023-03-23T00:52:42;100186.13;;;11.10;100.00
72110;BME280;59983;52.010;5.420;2023-03-23T00:55:08;100181.06;;;11.08;100.00
72110;BME280;59983;52.010;5.420;2023-03-23T00:57:33;100168.28;;;11.09;100.00
72110;BME280;59983;52.010;5.420;2023-03-23T00:59:59;100163.63;;;11.09;100.00
72110;BME280;59983;52.010;5.420;2023-03-23T01:02:24;100160.63;;;11.14;100.00
72110;BME280;59983;52.010;5.420;2023-03-23T01:04:50;100164.50;;;11.13;100.00
72110;BME280;59983;52.010;5.420;2023-03-23T01:07:19;100170.25;;;11.12;100.00
72110;BME280;59983;52.010;5.420;2023-03-23T01:09:44;100164.06;;;11.11;100.00
72110;BME280;59983;52.010;5.420;2023-03-23T01:12:10;100169.47;;;11.11;100.00
72110;BME280;59983;52.010;5.420;2023-03-23T01:14:36;100170.25;;;11.12;100.00
72110;BME280;59983;52.010;5.420;2023-03-23T01:17:02;100169.19;;;11.16;100.00
72110;BME280;59983;52.010;5.420;2023-03-23T01:19:28;100175.38;;;11.17;100.00
72110;BME280;59983;52.010;5.420;2023-03-23T01:21:53;100166.47;;;11.16;100.00
72110;BME280;59983;52.010;5.420;2023-03-23T01:24:19;100152.53;;;11.18;100.00
72110;BME280;59983;52.010;5.420;2023-03-23T01:26:44;100154.88;;;11.19;100.00
72110;BME280;59983;52.010;5.420;2023-03-23T01:29:10;100132.78;;;11.21;100.00
72110;BME280;59983;52.010;5.420;2023-03-23T01:31:35;100161.88;;;11.20;100.00
72110;BME280;59983;52.010;5.420;2023-03-23T01:34:04;100145.56;;;11.20;100.00
72110;BME280;59983;52.010;5.420;2023-03-23T01:36:30;100131.59;;;11.18;100.00
72110;BME280;59983;52.010;5.420;2023-03-23T01:39:01;100154.09;;;11.19;100.00
72110;BME280;59983;52.010;5.420;2023-03-23T01:41:29;100149.84;;;11.21;100.00
72110;BME280;59983;52.010;5.420;2023-03-23T01:46:20;100145.66;;;11.24;100.00
72110;BME280;59983;52.010;5.420;2023-03-23T01:48:48;100126.56;;;11.20;100.00
72110;BME280;59983;52.010;5.420;2023-03-23T01:51:15;100136.66;;;11.20;100.00
72110;BME280;59983;52.010;5.420;2023-03-23T01:53:52;100126.56;;;11.20;100.00
72110;BME280;59983;52.010;5.420;2023-03-23T01:56:21;100137.03;;;11.18;100.00
72110;BME280;59983;52.010;5.420;2023-03-23T01:58:51;100135.50;;;11.21;100.00
72110;BME280;59983;52.010;5.420;2023-03-23T02:01:18;100128.88;;;11.18;100.00
72110;BME280;59983;52.010;5.420;2023-03-23T02:03:45;100121.88;;;11.17;100.00
72110;BME280;59983;52.010;5.420;2023-03-23T02:06:11;100125.00;;;11.19;100.00
72110;BME280;59983;52.010;5.420;2023-03-23T02:08:38;100112.28;;;11.23;100.00
72110;BME280;59983;52.010;5.420;2023-03-23T02:11:22;100123.47;;;11.22;100.00
72110;BME280;59983;52.010;5.420;2023-03-23T02:13:48;100133.56;;;11.21;100.00
72110;BME280;59983;52.010;5.420;2023-03-23T02:24:34;100125.84;;;11.23;100.00
72110;BME280;59983;52.010;5.420;2023-03-23T02:27:08;100130.50;;;11.23;100.00
72110;BME280;59983;52.010;5.420;2023-03-23T02:29:54;100122.00;;;11.24;100.00
72110;BME280;59983;52.010;5.420;2023-03-23T02:35:34;100130.13;;;11.24;100.00
72110;BME280;59983;52.010;5.420;2023-03-23T02:38:06;100136.38;;;11.28;100.00
72110;BME280;59983;52.010;5.420;2023-03-23T02:40:41;100139.50;;;11.30;100.00
72110;BME280;59983;52.010;5.420;2023-03-23T02:43:10;100122.88;;;11.32;100.00
72110;BME280;59983;52.010;5.420;2023-03-23T02:45:37;100124.06;;;11.34;100.00
72110;BME280;59983;52.010;5.420;2023-03-23T02:48:04;100123.31;;;11.38;100.00
72110;BME280;59983;52.010;5.420;2023-03-23T02:50:31;100113.31;;;11.42;100.00
72110;BME280;59983;52.010;5.420;2023-03-23T02:52:59;100121.47;;;11.45;100.00
72110;BME280;59983;52.010;5.420;2023-03-23T02:55:27;100112.97;;;11.47;100.00
72110;BME280;59983;52.010;5.420;2023-03-23T02:57:55;100116.84;;;11.46;100.00
72110;BME280;59983;52.010;5.420;2023-03-23T03:00:21;100113.75;;;11.47;100.00
72110;BME280;59983;52.010;5.420;2023-03-23T03:02:49;100136.72;;;11.53;100.00
72110;BME280;59983;52.010;5.420;2023-03-23T03:05:30;100127.06;;;11.56;100.00
72110;BME280;59983;52.010;5.420;2023-03-23T03:08:26;100119.38;;;11.61;100.00
72110;BME280;59983;52.010;5.420;2023-03-23T03:11:16;100133.31;;;11.60;100.00
72110;BME280;59983;52.010;5.420;2023-03-23T03:13:52;100123.66;;;11.62;100.00
72110;BME280;59983;52.010;5.420;2023-03-23T03:16:22;100124.06;;;11.64;100.00
72110;BME280;59983;52.010;5.420;2023-03-23T03:19:09;100116.69;;;11.65;100.00
72110;BME280;59983;52.010;5.420;2023-03-23T03:21:42;100122.91;;;11.66;100.00
72110;BME280;59983;52.010;5.420;2023-03-23T03:24:11;100116.28;;;11.63;100.00
72110;BME280;59983;52.010;5.420;2023-03-23T03:26:42;100121.41;;;11.68;100.00
72110;BME280;59983;52.010;5.420;2023-03-23T03:29:15;100114.81;;;11.69;100.00
72110;BME280;59983;52.010;5.420;2023-03-23T03:31:43;100122.97;;;11.69;100.00
72110;BME280;59983;52.010;5.420;2023-03-23T03:34:13;100125.31;;;11.71;100.00
72110;BME280;59983;52.010;5.420;2023-03-23T03:36:44;100119.88;;;11.71;100.00
72110;BME280;59983;52.010;5.420;2023-03-23T03:39:12;100115.97;;;11.68;100.00
72110;BME280;59983;52.010;5.420;2023-03-23T03:41:38;100119.09;;;11.70;100.00
72110;BME280;59983;52.010;5.420;2023-03-23T03:44:05;100109.03;;;11.74;100.00
72110;BME280;59983;52.010;5.420;2023-03-23T03:46:32;100104.75;;;11.73;100.00
72110;BME280;59983;52.010;5.420;2023-03-23T03:48:59;100104.75;;;11.73;100.00
72110;BME280;59983;52.010;5.420;2023-03-23T03:51:26;100093.88;;;11.73;100.00
72110;BME280;59983;52.010;5.420;2023-03-23T03:53:52;100098.53;;;11.73;100.00
72110;BME280;59983;52.010;5.420;2023-03-23T03:56:18;100107.47;;;11.73;100.00
72110;BME280;59983;52.010;5.420;2023-03-23T03:58:45;100100.09;;;11.74;100.00
72110;BME280;59983;52.010;5.420;2023-03-23T04:01:11;100112.13;;;11.73;100.00
72110;BME280;59983;52.010;5.420;2023-03-23T04:03:37;100117.97;;;11.75;100.00
72110;BME280;59983;52.010;5.420;2023-03-23T04:06:03;100103.59;;;11.74;100.00
72110;BME280;59983;52.010;5.420;2023-03-23T04:08:29;100090.00;;;11.74;100.00
72110;BME280;59983;52.010;5.420;2023-03-23T04:10:55;100100.94;;;11.78;100.00
72110;BME280;59983;52.010;5.420;2023-03-23T04:13:21;100107.22;;;11.82;100.00
72110;BME280;59983;52.010;5.420;2023-03-23T04:15:47;100100.56;;;11.79;100.00
72110;BME280;59983;52.010;5.420;2023-03-23T04:18:14;100116.88;;;11.79;100.00
72110;BME280;59983;52.010;5.420;2023-03-23T04:20:45;100108.78;;;11.83;100.00
72110;BME280;59983;52.010;5.420;2023-03-23T04:23:17;100106.91;;;11.87;100.00
72110;BME280;59983;52.010;5.420;2023-03-23T04:25:49;100132.09;;;11.84;100.00
72110;BME280;59983;52.010;5.420;2023-03-23T04:28:16;100128.22;;;11.85;100.00
72110;BME280;59983;52.010;5.420;2023-03-23T04:30:50;100136.69;;;11.80;100.00
72110;BME280;59983;52.010;5.420;2023-03-23T04:33:19;100127.84;;;11.86;99.83
72110;BME280;59983;52.010;5.420;2023-03-23T04:35:45;100129.03;;;11.89;98.49
72110;BME280;59983;52.010;5.420;2023-03-23T04:38:15;100132.94;;;11.91;98.02
72110;BME280;59983;52.010;5.420;2023-03-23T04:40:42;100130.59;;;11.90;98.17
72110;BME280;59983;52.010;5.420;2023-03-23T04:43:08;100141.44;;;11.86;97.66
72110;BME280;59983;52.010;5.420;2023-03-23T04:45:34;100145.25;;;11.82;98.93
72110;BME280;59983;52.010;5.420;2023-03-23T04:48:04;100141.31;;;11.79;98.80
72110;BME280;59983;52.010;5.420;2023-03-23T04:50:32;100149.47;;;11.79;97.98
72110;BME280;59983;52.010;5.420;2023-03-23T04:53:04;100155.34;;;11.81;97.23
72110;BME280;59983;52.010;5.420;2023-03-23T04:55:34;100161.19;;;11.83;96.87
72110;BME280;59983;52.010;5.420;2023-03-23T04:58:04;100171.66;;;11.81;96.75
72110;BME280;59983;52.010;5.420;2023-03-23T05:00:31;100162.34;;;11.82;96.10
72110;BME280;59983;52.010;5.420;2023-03-23T05:02:57;100154.19;;;11.82;96.99
72110;BME280;59983;52.010;5.420;2023-03-23T05:05:24;100145.63;;;11.80;97.44
72110;BME280;59983;52.010;5.420;2023-03-23T05:07:50;100164.97;;;11.75;99.02
72110;BME280;59983;52.010;5.420;2023-03-23T05:10:16;100155.50;;;11.66;100.00
72110;BME280;59983;52.010;5.420;2023-03-23T05:12:42;100150.34;;;11.57;100.00
72110;BME280;59983;52.010;5.420;2023-03-23T05:15:09;100158.03;;;11.51;100.00
72110;BME280;59983;52.010;5.420;2023-03-23T05:17:35;100152.13;;;11.46;100.00
72110;BME280;59983;52.010;5.420;2023-03-23T05:20:03;100160.97;;;11.39;100.00
72110;BME280;59983;52.010;5.420;2023-03-23T05:22:30;100143.47;;;11.37;100.00
72110;BME280;59983;52.010;5.420;2023-03-23T05:24:59;100147.31;;;11.32;100.00
72110;BME280;59983;52.010;5.420;2023-03-23T05:27:29;100148.47;;;11.31;100.00
72110;BME280;59983;52.010;5.420;2023-03-23T05:29:56;100138.69;;;11.26;100.00
72110;BME280;59983;52.010;5.420;2023-03-23T05:32:24;100140.25;;;11.27;100.00
72110;BME280;59983;52.010;5.420;2023-03-23T05:34:58;100146.47;;;11.28;100.00
72110;BME280;59983;52.010;5.420;2023-03-23T05:37:25;100153.00;;;11.23;100.00
72110;BME280;59983;52.010;5.420;2023-03-23T05:39:52;100158.00;;;11.21;100.00
72110;BME280;59983;52.010;5.420;2023-03-23T05:42:19;100151.06;;;11.24;100.00
72110;BME280;59983;52.010;5.420;2023-03-23T05:44:46;100148.28;;;11.20;100.00
72110;BME280;59983;52.010;5.420;2023-03-23T05:47:11;100149.44;;;11.19;100.00
72110;BME280;59983;52.010;5.420;2023-03-23T05:49:37;100151.84;;;11.24;100.00
72110;BME280;59983;52.010;5.420;2023-03-23T05:52:03;100162.31;;;11.22;100.00
72110;BME280;59983;52.010;5.420;2023-03-23T05:54:28;100163.88;;;11.23;100.00
72110;BME280;59983;52.010;5.420;2023-03-23T05:56:54;100149.97;;;11.28;100.00
72110;BME280;59983;52.010;5.420;2023-03-23T05:59:19;100156.16;;;11.29;100.00
72110;BME280;59983;52.010;5.420;2023-03-23T06:01:45;100153.47;;;11.29;100.00
72110;BME280;59983;52.010;5.420;2023-03-23T06:04:11;100161.66;;;11.32;100.00
72110;BME280;59983;52.010;5.420;2023-03-23T06:06:37;100170.22;;;11.34;100.00
72110;BME280;59983;52.010;5.420;2023-03-23T06:09:02;100166.34;;;11.35;100.00
72110;BME280;59983;52.010;5.420;2023-03-23T06:11:28;100179.94;;;11.35;100.00
72110;BME280;59983;52.010;5.420;2023-03-23T06:13:54;100179.53;;;11.33;100.00
72110;BME280;59983;52.010;5.420;2023-03-23T06:16:19;100188.88;;;11.36;100.00
72110;BME280;59983;52.010;5.420;2023-03-23T06:18:45;100178.47;;;11.42;100.00
72110;BME280;59983;52.010;5.420;2023-03-23T06:21:12;100185.47;;;11.43;100.00
72110;BME280;59983;52.010;5.420;2023-03-23T06:23:38;100219.22;;;11.42;100.00
72110;BME280;59983;52.010;5.420;2023-03-23T06:26:07;100195.19;;;11.44;100.00
72110;BME280;59983;52.010;5.420;2023-03-23T06:28:33;100202.53;;;11.43;100.00
72110;BME280;59983;52.010;5.420;2023-03-23T06:31:04;100209.53;;;11.44;100.00
72110;BME280;59983;52.010;5.420;2023-03-23T06:33:35;100213.03;;;11.45;100.00
72110;BME280;59983;52.010;5.420;2023-03-23T06:36:02;100221.56;;;11.43;100.00
72110;BME280;59983;52.010;5.420;2023-03-23T06:38:27;100211.38;;;11.37;100.00
72110;BME280;59983;52.010;5.420;2023-03-23T06:40:53;100219.75;;;11.28;100.00
72110;BME280;59983;52.010;5.420;2023-03-23T06:43:19;100217.38;;;11.23;100.00
72110;BME280;59983;52.010;5.420;2023-03-23T06:45:45;100218.44;;;11.18;100.00
72110;BME280;59983;52.010;5.420;2023-03-23T06:48:11;100221.13;;;11.15;100.00
72110;BME280;59983;52.010;5.420;2023-03-23T06:50:37;100222.97;;;11.11;100.00
72110;BME280;59983;52.010;5.420;2023-03-23T06:53:03;100229.56;;;11.10;100.00
72110;BME280;59983;52.010;5.420;2023-03-23T06:55:29;100241.63;;;11.12;100.00
72110;BME280;59983;52.010;5.420;2023-03-23T06:57:54;100240.50;;;11.13;100.00
72110;BME280;59983;52.010;5.420;2023-03-23T07:00:20;100246.75;;;11.17;100.00
72110;BME280;59983;52.010;5.420;2023-03-23T07:02:45;100253.00;;;11.21;100.00
72110;BME280;59983;52.010;5.420;2023-03-23T07:05:12;100262.38;;;11.24;100.00
72110;BME280;59983;52.010;5.420;2023-03-23T07:07:39;100254.34;;;11.31;100.00
72110;BME280;59983;52.010;5.420;2023-03-23T07:10:07;100254.69;;;11.29;100.00
72110;BME280;59983;52.010;5.420;2023-03-23T07:12:34;100247.31;;;11.30;100.00
72110;BME280;59983;52.010;5.420;2023-03-23T07:15:04;100256.31;;;11.34;100.00
72110;BME280;59983;52.010;5.420;2023-03-23T07:17:30;100254.44;;;11.38;100.00
72110;BME280;59983;52.010;5.420;2023-03-23T07:19:55;100259.03;;;11.34;100.00
72110;BME280;59983;52.010;5.420;2023-03-23T07:22:21;100295.13;;;11.34;100.00
72110;BME280;59983;52.010;5.420;2023-03-23T07:24:46;100261.75;;;11.34;100.00
72110;BME280;59983;52.010;5.420;2023-03-23T07:27:12;100264.41;;;11.30;100.00
72110;BME280;59983;52.010;5.420;2023-03-23T07:29:39;100267.06;;;11.27;100.00
72110;BME280;59983;52.010;5.420;2023-03-23T07:32:05;100265.13;;;11.27;100.00
72110;BME280;59983;52.010;5.420;2023-03-23T07:34:32;100270.97;;;11.29;100.00
72110;BME280;59983;52.010;5.420;2023-03-23T07:36:58;100277.63;;;11.32;100.00
72110;BME280;59983;52.010;5.420;2023-03-23T07:39:24;100279.91;;;11.30;100.00
72110;BME280;59983;52.010;5.420;2023-03-23T07:41:51;100264.41;;;11.30;100.00
72110;BME280;59983;52.010;5.420;2023-03-23T07:44:16;100281.06;;;11.29;100.00
72110;BME280;59983;52.010;5.420;2023-03-23T07:46:42;100278.72;;;11.27;100.00
72110;BME280;59983;52.010;5.420;2023-03-23T07:49:08;100292.59;;;11.22;100.00
72110;BME280;59983;52.010;5.420;2023-03-23T07:51:34;100285.94;;;11.20;100.00
72110;BME280;59983;52.010;5.420;2023-03-23T07:54:01;100292.53;;;11.19;100.00
72110;BME280;59983;52.010;5.420;2023-03-23T07:56:30;100296.75;;;11.16;100.00
72110;BME280;59983;52.010;5.420;2023-03-23T07:58:55;100290.91;;;11.14;100.00
72110;BME280;59983;52.010;5.420;2023-03-23T08:01:21;100304.78;;;11.09;100.00
72110;BME280;59983;52.010;5.420;2023-03-23T08:03:48;100305.88;;;11.04;100.00
72110;BME280;59983;52.010;5.420;2023-03-23T08:06:14;100303.94;;;11.05;100.00
72110;BME280;59983;52.010;5.420;2023-03-23T08:08:40;100313.94;;;11.01;100.00
72110;BME280;59983;52.010;5.420;2023-03-23T08:11:06;100303.84;;;11.01;100.00
72110;BME280;59983;52.010;5.420;2023-03-23T08:13:32;100318.63;;;11.04;100.00
72110;BME280;59983;52.010;5.420;2023-03-23T08:15:59;100316.78;;;11.08;100.00
72110;BME280;59983;52.010;5.420;2023-03-23T08:18:29;100317.97;;;11.11;100.00
72110;BME280;59983;52.010;5.420;2023-03-23T08:20:55;100316.84;;;11.12;100.00
72110;BME280;59983;52.010;5.420;2023-03-23T08:23:20;100325.75;;;11.12;100.00
72110;BME280;59983;52.010;5.420;2023-03-23T08:25:47;100305.19;;;11.11;100.00
72110;BME280;59983;52.010;5.420;2023-03-23T08:28:13;100306.34;;;11.10;100.00
72110;BME280;59983;52.010;5.420;2023-03-23T08:30:40;100304.81;;;11.13;100.00
72110;BME280;59983;52.010;5.420;2023-03-23T08:33:06;100309.91;;;11.14;100.00
72110;BME280;59983;52.010;5.420;2023-03-23T08:35:32;100308.41;;;11.17;100.00
72110;BME280;59983;52.010;5.420;2023-03-23T08:37:57;100320.47;;;11.19;100.00
72110;BME280;59983;52.010;5.420;2023-03-23T08:40:24;100308.09;;;11.22;100.00
72110;BME280;59983;52.010;5.420;2023-03-23T08:42:51;100316.66;;;11.24;100.00
72110;BME280;59983;52.010;5.420;2023-03-23T08:45:21;100320.94;;;11.25;100.00
72110;BME280;59983;52.010;5.420;2023-03-23T08:47:48;100319.50;;;11.31;100.00
72110;BME280;59983;52.010;5.420;2023-03-23T08:50:25;100318.38;;;11.32;100.00
72110;BME280;59983;52.010;5.420;2023-03-23T08:52:51;100316.84;;;11.34;100.00
72110;BME280;59983;52.010;5.420;2023-03-23T08:55:18;100328.13;;;11.37;100.00
72110;BME280;59983;52.010;5.420;2023-03-23T08:57:44;100337.47;;;11.39;100.00
72110;BME280;59983;52.010;5.420;2023-03-23T09:00:13;100338.38;;;11.70;100.00
72110;BME280;59983;52.010;5.420;2023-03-23T09:02:44;100336.44;;;11.93;100.00
72110;BME280;59983;52.010;5.420;2023-03-23T09:05:10;100350.34;;;12.18;100.00
72110;BME280;59983;52.010;5.420;2023-03-23T09:07:40;100346.34;;;12.08;100.00
72110;BME280;59983;52.010;5.420;2023-03-23T09:10:07;100352.25;;;12.14;100.00
72110;BME280;59983;52.010;5.420;2023-03-23T09:12:33;100336.81;;;12.22;100.00
72110;BME280;59983;52.010;5.420;2023-03-23T09:14:58;100344.06;;;12.10;100.00
72110;BME280;59983;52.010;5.420;2023-03-23T09:17:24;100355.06;;;12.21;100.00
72110;BME280;59983;52.010;5.420;2023-03-23T09:19:50;100348.75;;;12.43;100.00
72110;BME280;59983;52.010;5.420;2023-03-23T09:22:16;100351.53;;;12.47;100.00
72110;BME280;59983;52.010;5.420;2023-03-23T09:24:45;100358.75;;;12.66;100.00
72110;BME280;59983;52.010;5.420;2023-03-23T09:27:11;100353.81;;;12.75;100.00
72110;BME280;59983;52.010;5.420;2023-03-23T09:29:37;100346.69;;;12.63;98.51
72110;BME280;59983;52.010;5.420;2023-03-23T09:32:03;100353.59;;;12.57;98.22
72110;BME280;59983;52.010;5.420;2023-03-23T09:34:28;100373.72;;;12.49;96.76
72110;BME280;59983;52.010;5.420;2023-03-23T09:36:54;100370.28;;;12.26;94.76
72110;BME280;59983;52.010;5.420;2023-03-23T09:39:20;100364.34;;;12.46;93.74
72110;BME280;59983;52.010;5.420;2023-03-23T09:44:36;100370.09;;;12.71;95.87
72110;BME280;59983;52.010;5.420;2023-03-23T09:49:50;100366.44;;;12.90;94.78
72110;BME280;59983;52.010;5.420;2023-03-23T09:52:18;100352.97;;;13.04;94.92
72110;BME280;59983;52.010;5.420;2023-03-23T09:54:53;100361.88;;;13.01;91.29
72110;BME280;59983;52.010;5.420;2023-03-23T09:57:27;100380.69;;;13.14;91.98
72110;BME280;59983;52.010;5.420;2023-03-23T10:00:06;100390.47;;;13.18;92.98
72110;BME280;59983;52.010;5.420;2023-03-23T10:05:42;100386.78;;;13.37;89.88
72110;BME280;59983;52.010;5.420;2023-03-23T10:08:19;100374.41;;;13.10;90.03
72110;BME280;59983;52.010;5.420;2023-03-23T10:11:14;100407.97;;;13.17;90.03
72110;BME280;59983;52.010;5.420;2023-03-23T10:16:27;100400.28;;;12.93;87.19
72110;BME280;59983;52.010;5.420;2023-03-23T10:19:23;100398.75;;;12.95;89.92
72110;BME280;59983;52.010;5.420;2023-03-23T10:21:58;100415.66;;;13.08;88.47
72110;BME280;59983;52.010;5.420;2023-03-23T10:24:34;100400.72;;;13.28;89.58
72110;BME280;59983;52.010;5.420;2023-03-23T10:27:06;100419.09;;;13.39;83.37
72110;BME280;59983;52.010;5.420;2023-03-23T10:30:01;100411.63;;;13.32;84.89
72110;BME280;59983;52.010;5.420;2023-03-23T10:32:48;100412.53;;;13.10;84.82
72110;BME280;59983;52.010;5.420;2023-03-23T10:35:29;100410.19;;;13.08;87.45
72110;BME280;59983;52.010;5.420;2023-03-23T10:38:03;100458.34;;;13.00;81.85
72110;BME280;59983;52.010;5.420;2023-03-23T10:40:30;100418.06;;;12.83;83.63
72110;BME280;59983;52.010;5.420;2023-03-23T10:43:00;100411.34;;;12.73;83.59
72110;BME280;59983;52.010;5.420;2023-03-23T10:45:28;100401.69;;;12.80;86.49
72110;BME280;59983;52.010;5.420;2023-03-23T10:50:37;100402.47;;;12.80;83.11
72110;BME280;59983;52.010;5.420;2023-03-23T10:53:13;100415.25;;;12.76;83.95
72110;BME280;59983;52.010;5.420;2023-03-23T10:55:41;100405.53;;;12.75;82.93
72110;BME280;59983;52.010;5.420;2023-03-23T10:58:12;100419.63;;;12.84;84.71
72110;BME280;59983;52.010;5.420;2023-03-23T11:00:46;100411.41;;;12.81;82.84
72110;BME280;59983;52.010;5.420;2023-03-23T11:05:52;100405.75;;;12.96;82.71
72110;BME280;59983;52.010;5.420;2023-03-23T11:08:21;100418.28;;;13.01;82.36
72110;BME280;59983;52.010;5.420;2023-03-23T11:10:56;100422.56;;;13.02;81.58
72110;BME280;59983;52.010;5.420;2023-03-23T11:13:30;100426.34;;;12.94;79.82
72110;BME280;59983;52.010;5.420;2023-03-23T11:15:56;100424.00;;;12.92;79.42
72110;BME280;59983;52.010;5.420;2023-03-23T11:18:42;100418.03;;;13.13;81.67
72110;BME280;59983;52.010;5.420;2023-03-23T11:21:12;100418.69;;;13.37;79.05
72110;BME280;59983;52.010;5.420;2023-03-23T11:23:43;100411.16;;;13.64;78.91
72110;BME280;59983;52.010;5.420;2023-03-23T11:26:19;100415.53;;;13.75;77.31
72110;BME280;59983;52.010;5.420;2023-03-23T11:29:08;100405.66;;;13.60;79.36
72110;BME280;59983;52.010;5.420;2023-03-23T11:31:42;100401.69;;;13.50;78.14
72110;BME280;59983;52.010;5.420;2023-03-23T11:34:25;100408.59;;;13.37;79.75
72110;BME280;59983;52.010;5.420;2023-03-23T11:36:58;100406.72;;;13.45;77.44
72110;BME280;59983;52.010;5.420;2023-03-23T11:39:27;100392.88;;;13.68;79.21
72110;BME280;59983;52.010;5.420;2023-03-23T11:41:54;100401.78;;;14.05;78.82
72110;BME280;59983;52.010;5.420;2023-03-23T11:44:22;100424.19;;;14.36;76.59
72110;BME280;59983;52.010;5.420;2023-03-23T11:49:50;100405.13;;;14.43;76.67
72110;BME280;59983;52.010;5.420;2023-03-23T11:52:27;100389.94;;;14.45;74.23
72110;BME280;59983;52.010;5.420;2023-03-23T11:55:03;100393.72;;;14.23;74.65
72110;BME280;59983;52.010;5.420;2023-03-23T11:57:33;100395.56;;;14.08;74.59
72110;BME280;59983;52.010;5.420;2023-03-23T11:59:58;100391.94;;;13.94;76.02
72110;BME280;59983;52.010;5.420;2023-03-23T12:03:05;100407.44;;;13.86;78.13
72110;BME280;59983;52.010;5.420;2023-03-23T12:05:40;100410.16;;;13.82;75.41
72110;BME280;59983;52.010;5.420;2023-03-23T12:16:40;100410.28;;;13.97;76.99
72110;BME280;59983;52.010;5.420;2023-03-23T12:19:40;100403.16;;;13.85;78.01
72110;BME280;59983;52.010;5.420;2023-03-23T12:27:47;100398.53;;;13.93;78.84
72110;BME280;59983;52.010;5.420;2023-03-23T12:31:01;100411.38;;;13.88;78.73
72110;BME280;59983;52.010;5.420;2023-03-23T12:42:15;100405.56;;;13.94;80.46
72110;BME280;59983;52.010;5.420;2023-03-23T12:49:53;100383.56;;;14.24;83.80
72110;BME280;59983;52.010;5.420;2023-03-23T12:52:23;100372.31;;;14.32;80.83
72110;BME280;59983;52.010;5.420;2023-03-23T12:55:05;100368.44;;;14.37;79.53
72110;BME280;59983;52.010;5.420;2023-03-23T12:58:11;100384.63;;;14.70;79.35
72110;BME280;59983;52.010;5.420;2023-03-23T13:05:53;100357.88;;;15.51;74.03
72110;BME280;59983;52.010;5.420;2023-03-23T13:08:26;100369.63;;;15.69;71.98
72110;BME280;59983;52.010;5.420;2023-03-23T13:11:20;100368.44;;;15.56;74.48
72110;BME280;59983;52.010;5.420;2023-03-23T13:13:56;100377.44;;;15.64;72.07
72110;BME280;59983;52.010;5.420;2023-03-23T13:16:32;100399.69;;;15.87;70.02
72110;BME280;59983;52.010;5.420;2023-03-23T13:22:07;100390.31;;;15.81;71.69
72110;BME280;59983;52.010;5.420;2023-03-23T13:24:38;100407.53;;;15.81;69.57
72110;BME280;59983;52.010;5.420;2023-03-23T13:27:05;100398.50;;;15.56;71.86
72110;BME280;59983;52.010;5.420;2023-03-23T13:29:33;100384.78;;;15.20;73.99
72110;BME280;59983;52.010;5.420;2023-03-23T13:32:10;100386.38;;;15.46;73.48
72110;BME280;59983;52.010;5.420;2023-03-23T13:34:36;100391.88;;;15.61;75.92
72110;BME280;59983;52.010;5.420;2023-03-23T13:37:04;100380.94;;;16.00;72.92
72110;BME280;59983;52.010;5.420;2023-03-23T13:39:36;100405.13;;;15.55;72.84
72110;BME280;59983;52.010;5.420;2023-03-23T13:44:43;100386.25;;;14.86;74.55
72110;BME280;59983;52.010;5.420;2023-03-23T13:57:58;100418.28;;;13.75;86.82
72110;BME280;59983;52.010;5.420;2023-03-23T14:00:47;100432.25;;;13.70;89.00
72110;BME280;59983;52.010;5.420;2023-03-23T14:03:23;100422.03;;;13.60;88.68
72110;BME280;59983;52.010;5.420;2023-03-23T14:08:37;100375.84;;;13.78;89.43
72110;BME280;59983;52.010;5.420;2023-03-23T14:11:25;100387.88;;;14.25;88.76
72110;BME280;59983;52.010;5.420;2023-03-23T14:14:04;100390.25;;;15.45;84.67
72110;BME280;59983;52.010;5.420;2023-03-23T14:18:58;100394.56;;;15.43;82.67
72110;BME280;59983;52.010;5.420;2023-03-23T14:21:40;100394.97;;;15.59;81.02
72110;BME280;59983;52.010;5.420;2023-03-23T14:24:11;100387.53;;;16.20;75.98